createdAt,value
2022-08-22T00:01:29.435Z,2.20
2022-08-22T00:02:43.110Z,2.50
2022-08-22T00:02:43.290Z,2.40
2022-08-22T00:04:04.993Z,3.40
2022-08-22T00:07:01.060Z,2.87
2022-08-22T00:09:39.440Z,2.43
2022-08-22T00:12:15.405Z,2.60
2022-08-22T00:15:41.990Z,2.57
2022-08-22T00:18:28.209Z,2.60
2022-08-22T00:21:00.819Z,2.80
2022-08-22T00:23:33.526Z,2.73
2022-08-22T00:26:05.925Z,2.43
2022-08-22T00:28:44.586Z,2.70
2022-08-22T00:31:33.051Z,2.87
2022-08-22T00:34:07.151Z,2.60
2022-08-22T00:36:47.740Z,3.00
2022-08-22T00:39:18.104Z,3.00
2022-08-22T00:41:48.505Z,2.90
2022-08-22T00:44:31.634Z,2.90
2022-08-22T00:47:34.139Z,2.90
2022-08-22T00:50:19.667Z,2.90
2022-08-22T00:52:55.042Z,2.70
2022-08-22T00:55:37.689Z,2.90
2022-08-22T00:58:13.489Z,2.53
2022-08-22T01:00:51.196Z,2.40
2022-08-22T01:03:46.740Z,2.50
2022-08-22T01:06:28.488Z,2.57
2022-08-22T01:09:05.359Z,2.97
2022-08-22T01:11:49.913Z,2.70
2022-08-22T01:14:34.380Z,2.80
2022-08-22T01:17:41.333Z,2.80
2022-08-22T01:20:26.662Z,2.80
2022-08-22T01:23:11.503Z,2.43
2022-08-22T01:26:15.944Z,2.60
2022-08-22T01:28:58.138Z,2.43
2022-08-22T01:31:40.466Z,2.80
2022-08-22T01:34:13.224Z,2.83
2022-08-22T01:37:04.899Z,3.00
2022-08-22T01:39:49.023Z,2.97
2022-08-22T01:42:46.166Z,2.83
2022-08-22T01:45:12.671Z,3.17
2022-08-22T01:47:55.102Z,3.10
2022-08-22T01:50:30.943Z,2.87
2022-08-22T01:53:11.201Z,2.87
2022-08-22T01:55:56.030Z,2.90
2022-08-22T01:58:26.958Z,3.10
2022-08-22T02:01:02.595Z,3.50
2022-08-22T02:03:39.114Z,2.93
2022-08-22T02:06:20.565Z,3.03
2022-08-22T02:08:54.337Z,3.37
2022-08-22T02:12:39.277Z,3.10
2022-08-22T02:15:14.490Z,3.30
2022-08-22T02:18:03.333Z,3.57
2022-08-22T02:20:39.368Z,4.07
2022-08-22T02:23:20.450Z,3.20
2022-08-22T02:26:04.234Z,3.60
2022-08-22T02:28:56.769Z,3.10
2022-08-22T02:31:25.564Z,3.67
2022-08-22T02:33:56.969Z,3.93
2022-08-22T02:36:32.838Z,3.60
2022-08-22T02:39:38.638Z,4.20
2022-08-22T02:42:24.910Z,3.30
2022-08-22T02:45:21.500Z,4.07
2022-08-22T02:48:00.755Z,3.50
2022-08-22T02:50:35.711Z,3.73
2022-08-22T02:53:13.421Z,3.40
2022-08-22T02:55:55.103Z,3.83
2022-08-22T02:58:46.559Z,3.97
2022-08-22T03:01:38.050Z,3.40
2022-08-22T03:04:31.936Z,3.90
2022-08-22T03:06:58.485Z,3.63
2022-08-22T03:09:31.214Z,3.53
2022-08-22T03:12:19.337Z,3.83
2022-08-22T03:15:13.444Z,3.70
2022-08-22T03:18:09.440Z,4.43
2022-08-22T03:20:43.201Z,3.70
2022-08-22T03:23:36.297Z,4.03
2022-08-22T03:26:17.572Z,4.73
2022-08-22T03:28:54.396Z,3.80
2022-08-22T03:31:28.725Z,4.60
2022-08-22T03:34:22.500Z,4.30
2022-08-22T03:37:26.357Z,4.60
2022-08-22T03:40:21.302Z,4.30
2022-08-22T03:43:06.621Z,4.20
2022-08-22T03:45:55.024Z,3.90
2022-08-22T03:49:01.325Z,3.90
2022-08-22T03:51:40.709Z,4.07
2022-08-22T03:54:30.485Z,5.03
2022-08-22T03:57:34.897Z,4.80
2022-08-22T04:00:39.251Z,4.20
2022-08-22T04:03:27.819Z,4.00
2022-08-22T04:06:13.099Z,4.80
2022-08-22T04:08:50.384Z,4.43
2022-08-22T04:11:41.385Z,4.90
2022-08-22T04:14:33.155Z,5.30
2022-08-22T04:17:30.651Z,4.53
2022-08-22T04:20:16.632Z,4.67
2022-08-22T04:23:01.944Z,4.77
2022-08-22T04:25:36.288Z,4.33
2022-08-22T04:28:22.249Z,5.13
2022-08-22T04:31:06.292Z,4.47
2022-08-22T04:33:52.822Z,4.97
2022-08-22T04:36:38.056Z,5.20
2022-08-22T04:39:25.954Z,5.13
2022-08-22T04:41:53.399Z,4.50
2022-08-22T04:44:28.232Z,4.70
2022-08-22T04:47:27.048Z,4.93
2022-08-22T04:50:18.295Z,5.20
2022-08-22T04:53:00.460Z,4.90
2022-08-22T04:55:36.583Z,5.00
2022-08-22T04:58:21.226Z,4.73
2022-08-22T05:01:06.723Z,4.60
2022-08-22T05:03:44.810Z,5.27
2022-08-22T05:06:15.745Z,5.10
2022-08-22T05:08:45.593Z,5.20
2022-08-22T05:11:19.405Z,5.40
2022-08-22T05:13:51.835Z,5.73
2022-08-22T05:16:23.753Z,5.33
2022-08-22T05:18:59.531Z,5.90
2022-08-22T05:21:32.305Z,5.13
2022-08-22T05:24:05.283Z,5.43
2022-08-22T05:26:42.337Z,5.87
2022-08-22T05:29:11.730Z,5.57
2022-08-22T05:31:47.129Z,5.50
2022-08-22T05:34:19.473Z,5.73
2022-08-22T05:37:04.609Z,5.30
2022-08-22T05:39:38.875Z,5.77
2022-08-22T05:42:12.776Z,5.80
2022-08-22T05:44:39.687Z,6.30
2022-08-22T05:47:15.420Z,5.63
2022-08-22T05:50:01.920Z,5.83
2022-08-22T05:52:50.354Z,6.10
2022-08-22T05:55:37.377Z,5.60
2022-08-22T05:58:16.178Z,5.73
2022-08-22T06:00:47.807Z,6.37
2022-08-22T06:03:29.493Z,6.63
2022-08-22T06:05:59.903Z,6.10
2022-08-22T06:08:56.365Z,6.97
2022-08-22T06:11:41.178Z,6.97
2022-08-22T06:14:39.843Z,6.47
2022-08-22T06:17:17.121Z,6.07
2022-08-22T06:19:50.025Z,6.67
2022-08-22T06:22:27.051Z,7.10
2022-08-22T06:24:57.664Z,8.00
2022-08-22T06:27:31.160Z,6.80
2022-08-22T06:30:01.630Z,7.07
2022-08-22T06:33:00.154Z,7.63
2022-08-22T06:35:52.846Z,7.33
2022-08-22T06:38:21.626Z,6.23
2022-08-22T06:40:54.229Z,6.67
2022-08-22T06:43:24.774Z,7.00
2022-08-22T06:45:53.324Z,6.60
2022-08-22T06:48:23.903Z,7.03
2022-08-22T06:50:58.790Z,7.83
2022-08-22T06:53:33.229Z,7.23
2022-08-22T06:56:05.466Z,7.23
2022-08-22T06:58:43.259Z,7.97
2022-08-22T07:01:14.881Z,7.77
2022-08-22T07:03:46.997Z,7.30
2022-08-22T07:06:16.408Z,7.00
2022-08-22T07:08:44.054Z,7.27
2022-08-22T07:11:13.518Z,6.83
2022-08-22T07:13:46.549Z,6.67
2022-08-22T07:16:13.569Z,6.20
2022-08-22T07:18:49.163Z,7.23
2022-08-22T07:21:43.779Z,6.77
2022-08-22T07:24:16.495Z,7.03
2022-08-22T07:27:12.754Z,6.07
2022-08-22T07:30:28.166Z,6.50
2022-08-22T07:33:25.786Z,6.20
2022-08-22T07:36:07.190Z,6.13
2022-08-22T07:38:49.681Z,6.83
2022-08-22T07:41:22.045Z,5.83
2022-08-22T07:43:51.788Z,6.13
2022-08-22T07:46:27.453Z,6.43
2022-08-22T07:49:09.372Z,6.53
2022-08-22T07:51:42.481Z,6.50
2022-08-22T07:54:13.954Z,5.73
2022-08-22T07:56:46.426Z,5.87
2022-08-22T07:59:17.277Z,5.70
2022-08-22T08:01:48.701Z,5.33
2022-08-22T08:04:20.916Z,5.40
2022-08-22T08:06:51.460Z,4.93
2022-08-22T08:09:19.780Z,5.07
2022-08-22T08:11:49.286Z,4.40
2022-08-22T08:14:16.846Z,5.00
2022-08-22T08:17:14.642Z,4.77
2022-08-22T08:19:43.111Z,4.87
2022-08-22T08:22:16.374Z,4.90
2022-08-22T08:24:45.129Z,5.17
2022-08-22T08:27:34.998Z,4.80
2022-08-22T08:30:04.793Z,4.13
2022-08-22T08:32:37.353Z,4.30
2022-08-22T08:35:28.122Z,3.87
2022-08-22T08:38:08.799Z,4.63
2022-08-22T08:40:54.003Z,4.60
2022-08-22T08:43:58.091Z,3.57
2022-08-22T08:46:39.922Z,3.63
2022-08-22T08:49:33.709Z,3.73
2022-08-22T08:52:26.029Z,4.27
2022-08-22T08:55:02.377Z,4.00
2022-08-22T08:57:46.725Z,3.77
2022-08-22T09:00:23.372Z,3.20
2022-08-22T09:03:24.034Z,4.30
2022-08-22T09:06:13.379Z,4.00
2022-08-22T09:09:03.060Z,3.80
2022-08-22T09:11:48.077Z,3.53
2022-08-22T09:14:57.341Z,2.90
2022-08-22T09:17:42.125Z,3.60
2022-08-22T09:20:27.593Z,4.07
2022-08-22T09:26:16.701Z,3.33
2022-08-22T09:28:53.519Z,3.27
2022-08-22T09:31:47.376Z,3.60
2022-08-22T09:34:34.679Z,2.97
2022-08-22T09:37:04.673Z,3.27
2022-08-22T09:39:55.528Z,2.60
2022-08-22T09:40:16.741Z,3.40
2022-08-22T09:42:33.074Z,2.33
2022-08-22T09:45:11.837Z,2.17
2022-08-22T09:48:07.189Z,2.50
2022-08-22T09:50:52.564Z,2.90
2022-08-22T09:54:02.814Z,2.50
2022-08-22T09:56:59.691Z,3.13
2022-08-22T10:00:13.585Z,2.60
2022-08-22T10:02:52.620Z,3.10
2022-08-22T10:05:41.215Z,3.00
2022-08-22T10:08:20.121Z,3.00
2022-08-22T10:10:58.971Z,3.00
2022-08-22T10:13:44.428Z,2.90
2022-08-22T10:16:42.181Z,3.10
2022-08-22T10:19:18.172Z,2.80
2022-08-22T10:22:03.209Z,2.50
2022-08-22T10:24:43.693Z,2.80
2022-08-22T10:27:18.395Z,2.43
2022-08-22T10:30:02.941Z,2.50
2022-08-22T10:32:36.297Z,2.10
2022-08-22T10:35:19.788Z,2.13
2022-08-22T10:38:10.753Z,2.50
2022-08-22T10:40:54.608Z,2.20
2022-08-22T10:43:33.375Z,2.60
2022-08-22T10:46:12.586Z,2.63
2022-08-22T10:49:20.446Z,2.27
2022-08-22T10:52:15.723Z,2.20
2022-08-22T10:54:51.393Z,2.87
2022-08-22T10:58:02.710Z,2.33
2022-08-22T11:00:36.365Z,2.73
2022-08-22T11:03:20.014Z,2.90
2022-08-22T11:05:50.979Z,3.10
2022-08-22T11:08:21.405Z,3.07
2022-08-22T11:11:03.230Z,2.70
2022-08-22T11:13:39.098Z,2.60
2022-08-22T11:16:31.529Z,3.10
2022-08-22T11:19:31.149Z,2.80
2022-08-22T11:22:06.110Z,3.07
2022-08-22T11:24:55.946Z,2.90
2022-08-22T11:27:37.883Z,2.53
2022-08-22T11:30:18.358Z,2.93
2022-08-22T11:33:04.929Z,2.60
2022-08-22T11:35:56.120Z,3.10
2022-08-22T11:38:40.823Z,2.40
2022-08-22T11:41:18.876Z,2.87
2022-08-22T11:43:50.209Z,2.20
2022-08-22T11:46:25.523Z,3.07
2022-08-22T11:48:58.273Z,2.77
2022-08-22T11:51:44.931Z,2.80
2022-08-22T11:54:30.944Z,2.93
2022-08-22T11:57:41.835Z,3.10
2022-08-22T12:00:25.048Z,2.60
2022-08-22T12:03:28.978Z,3.20
2022-08-22T12:06:17.021Z,3.37
2022-08-22T12:08:51.002Z,2.80
2022-08-22T12:12:01.848Z,2.40
2022-08-22T12:14:42.887Z,2.80
2022-08-22T12:17:50.969Z,2.20
2022-08-22T12:20:25.970Z,2.60
2022-08-22T12:23:40.772Z,2.67
2022-08-22T12:26:54.835Z,2.70
2022-08-22T12:29:45.125Z,3.00
2022-08-22T12:32:43.852Z,2.97
2022-08-22T12:35:16.704Z,2.50
2022-08-22T12:38:48.191Z,2.60
2022-08-22T12:41:38.159Z,2.83
2022-08-22T12:44:37.226Z,3.00
2022-08-22T12:47:24.046Z,2.67
2022-08-22T12:49:56.837Z,2.80
2022-08-22T12:52:48.707Z,3.00
2022-08-22T12:55:42.136Z,2.77
2022-08-22T12:58:30.495Z,3.50
2022-08-22T13:01:06.139Z,2.83
2022-08-22T13:03:46.471Z,2.90
2022-08-22T13:06:48.602Z,2.70
2022-08-22T13:09:30.587Z,2.57
2022-08-22T13:12:14.871Z,3.17
2022-08-22T13:14:51.729Z,2.87
2022-08-22T13:17:25.018Z,2.90
2022-08-22T13:19:58.038Z,3.47
2022-08-22T13:22:29.437Z,2.73
2022-08-22T13:25:08.709Z,2.93
2022-08-22T13:27:51.008Z,2.87
2022-08-22T13:30:22.363Z,2.97
2022-08-22T13:32:52.939Z,3.07
2022-08-22T13:35:35.265Z,3.07
2022-08-22T13:38:12.216Z,3.17
2022-08-22T13:40:44.777Z,2.50
2022-08-22T13:43:14.226Z,2.73
2022-08-22T13:45:49.390Z,3.03
2022-08-22T13:48:16.061Z,3.10
2022-08-22T13:51:01.657Z,2.80
2022-08-22T13:53:56.104Z,2.80
2022-08-22T13:56:50.410Z,2.90
2022-08-22T13:59:49.006Z,2.90
2022-08-22T14:02:30.843Z,2.67
2022-08-22T14:05:06.202Z,2.93
2022-08-22T14:07:38.862Z,2.70
2022-08-22T14:10:14.902Z,2.87
2022-08-22T14:12:50.336Z,2.70
2022-08-22T14:15:32.229Z,2.77
2022-08-22T14:18:11.588Z,2.67
2022-08-22T14:20:40.900Z,2.80
2022-08-22T14:23:13.003Z,3.07
2022-08-22T14:25:43.213Z,3.17
2022-08-22T14:28:33.600Z,3.43
2022-08-22T14:31:08.464Z,3.50
2022-08-22T14:33:40.823Z,3.75
2022-08-22T14:36:17.198Z,3.10
2022-08-22T14:38:50.443Z,3.17
2022-08-22T14:41:17.022Z,2.97
2022-08-22T14:43:53.030Z,3.13
2022-08-22T14:46:32.711Z,3.22
2022-08-22T14:49:05.985Z,3.27
2022-08-22T14:51:33.093Z,2.80
2022-08-22T14:54:13.864Z,2.90
2022-08-22T14:56:42.658Z,3.20
2022-08-22T14:59:14.954Z,3.30
2022-08-22T15:02:30.989Z,3.00
2022-08-22T15:05:01.821Z,2.70
2022-08-22T15:07:35.161Z,2.50
2022-08-22T15:10:21.764Z,2.90
2022-08-22T15:12:51.603Z,2.53
2022-08-22T15:15:49.308Z,2.77
2022-08-22T15:18:34.304Z,2.90
2022-08-22T15:21:11.286Z,2.70
2022-08-22T15:23:45.143Z,3.37
2022-08-22T15:26:31.005Z,3.40
2022-08-22T15:29:17.829Z,3.17
2022-08-22T15:31:52.037Z,3.60
2022-08-22T15:34:29.661Z,3.10
2022-08-22T15:37:17.777Z,3.23
2022-08-22T15:40:11.580Z,3.20
2022-08-22T15:42:49.035Z,3.37
2022-08-22T15:45:38.487Z,2.90
2022-08-22T15:48:11.492Z,2.90
2022-08-22T15:50:55.012Z,2.90
2022-08-22T15:53:44.965Z,2.93
2022-08-22T15:56:11.498Z,2.93
2022-08-22T15:58:48.829Z,3.07
2022-08-22T16:01:20.496Z,3.20
2022-08-22T16:04:06.627Z,2.63
2022-08-22T16:06:45.261Z,3.00
2022-08-22T16:09:32.227Z,2.50
2022-08-22T16:12:03.991Z,2.90
2022-08-22T16:14:33.643Z,3.10
2022-08-22T16:17:08.232Z,3.37
2022-08-22T16:19:38.421Z,3.20
2022-08-22T16:22:07.262Z,3.20
2022-08-22T16:24:58.174Z,3.40
2022-08-22T16:27:27.158Z,3.57
2022-08-22T16:30:31.711Z,3.30
2022-08-22T16:32:58.901Z,3.30
2022-08-22T16:36:02.951Z,3.47
2022-08-22T16:38:40.627Z,4.03
2022-08-22T16:41:22.207Z,3.43
2022-08-22T16:44:22.855Z,3.60
2022-08-22T16:46:53.122Z,3.33
2022-08-22T16:49:32.233Z,3.60
2022-08-22T16:52:24.015Z,3.40
2022-08-22T16:55:02.658Z,3.27
2022-08-22T16:58:06.341Z,3.03
2022-08-22T17:00:43.100Z,3.40
2022-08-22T17:03:32.837Z,3.17
2022-08-22T17:06:40.671Z,3.37
2022-08-22T17:09:10.482Z,3.47
2022-08-22T17:12:02.602Z,3.43
2022-08-22T17:14:35.539Z,3.30
2022-08-22T17:17:16.279Z,3.53
2022-08-22T17:20:08.393Z,3.80
2022-08-22T17:22:50.250Z,3.60
2022-08-22T17:25:31.731Z,4.03
2022-08-22T17:28:08.024Z,3.70
2022-08-22T17:30:45.528Z,3.67
2022-08-22T17:33:27.949Z,3.37
2022-08-22T17:36:04.556Z,4.00
2022-08-22T17:39:36.712Z,3.17
2022-08-22T17:42:05.976Z,3.17
2022-08-22T17:44:47.856Z,3.50
2022-08-22T17:47:19.880Z,3.57
2022-08-22T17:49:56.793Z,3.50
2022-08-22T17:52:38.346Z,3.50
2022-08-22T17:55:23.613Z,3.83
2022-08-22T17:58:04.831Z,4.10
2022-08-22T18:00:43.430Z,3.67
2022-08-22T18:03:26.228Z,3.87
2022-08-22T18:06:07.265Z,3.60
2022-08-22T18:11:55.210Z,4.00
2022-08-22T18:14:37.963Z,3.57
2022-08-22T18:17:31.799Z,2.97
2022-08-22T18:20:07.750Z,3.90
2022-08-22T18:22:45.931Z,4.10
2022-08-22T18:25:18.429Z,3.67
2022-08-22T18:28:26.856Z,3.47
2022-08-22T18:31:02.817Z,3.30
2022-08-22T18:33:49.569Z,3.40
2022-08-22T18:36:25.665Z,4.00
2022-08-22T18:39:03.613Z,3.77
2022-08-22T18:41:43.572Z,3.00
2022-08-22T18:44:28.637Z,3.27
2022-08-22T18:46:59.144Z,3.00
2022-08-22T18:49:25.703Z,3.30
2022-08-22T18:52:11.905Z,2.93
2022-08-22T18:54:50.653Z,3.17
2022-08-22T18:57:53.968Z,2.90
2022-08-22T19:00:24.256Z,2.70
2022-08-22T19:03:01.118Z,3.33
2022-08-22T19:05:34.013Z,3.10
2022-08-22T19:08:01.039Z,3.57
2022-08-22T19:10:34.420Z,3.07
2022-08-22T19:13:10.689Z,3.43
2022-08-22T19:15:57.929Z,3.27
2022-08-22T19:18:45.907Z,3.07
2022-08-22T19:21:46.035Z,2.87
2022-08-22T19:24:27.619Z,2.90
2022-08-22T19:27:19.141Z,3.13
2022-08-22T19:29:45.669Z,2.90
2022-08-22T19:32:44.012Z,3.13
2022-08-22T19:35:34.898Z,2.90
2022-08-22T19:38:04.822Z,3.37
2022-08-22T19:40:54.192Z,2.73
2022-08-22T19:43:27.179Z,3.53
2022-08-22T19:45:55.928Z,2.90
2022-08-22T19:48:27.295Z,3.13
2022-08-22T19:51:12.889Z,3.37
2022-08-22T19:53:56.208Z,3.10
2022-08-22T19:56:45.719Z,3.17
2022-08-22T19:59:50.793Z,2.67
2022-08-22T20:02:43.369Z,2.90
2022-08-22T20:05:19.601Z,2.90
2022-08-22T20:07:58.540Z,3.00
2022-08-22T20:10:40.301Z,3.13
2022-08-22T20:13:07.668Z,2.97
2022-08-22T20:16:03.370Z,2.63
2022-08-22T20:19:08.807Z,3.10
2022-08-22T20:21:48.727Z,2.97
2022-08-22T20:24:37.740Z,3.17
2022-08-22T20:27:14.840Z,2.90
2022-08-22T20:29:51.413Z,3.20
2022-08-22T20:32:21.318Z,2.73
2022-08-22T20:34:53.868Z,2.67
2022-08-22T20:37:50.703Z,3.00
2022-08-22T20:41:01.398Z,3.00
2022-08-22T20:43:39.292Z,2.90
2022-08-22T20:46:44.039Z,2.90
2022-08-22T20:49:22.382Z,2.77
2022-08-22T20:52:01.157Z,3.20
2022-08-22T20:54:31.678Z,2.90
2022-08-22T20:57:19.858Z,2.77
2022-08-22T20:59:56.553Z,3.00
2022-08-22T21:02:26.684Z,2.80
2022-08-22T21:04:53.231Z,2.93
2022-08-22T21:07:28.788Z,2.87
2022-08-22T21:10:34.606Z,2.90
2022-08-22T21:13:11.830Z,3.13
2022-08-22T21:15:47.802Z,3.37
2022-08-22T21:18:34.660Z,2.77
2022-08-22T21:21:17.718Z,2.77
2022-08-22T21:23:50.465Z,3.33
2022-08-22T21:26:28.100Z,2.90
2022-08-22T21:29:17.635Z,2.97
2022-08-22T21:31:49.970Z,3.37
2022-08-22T21:34:22.122Z,3.30
2022-08-22T21:36:52.463Z,3.23
2022-08-22T21:39:25.892Z,3.30
2022-08-22T21:41:54.012Z,3.10
2022-08-22T21:44:35.692Z,3.17
2022-08-22T21:47:34.845Z,3.43
2022-08-22T21:50:13.472Z,3.30
2022-08-22T21:52:44.297Z,3.50
2022-08-22T21:55:29.143Z,3.57
2022-08-22T21:58:36.308Z,3.13
2022-08-22T22:01:31.305Z,3.40
2022-08-22T22:03:59.431Z,2.97
2022-08-22T22:06:26.556Z,3.53
2022-08-22T22:08:53.103Z,3.10
2022-08-22T22:11:19.760Z,3.23
2022-08-22T22:13:46.540Z,3.47
2022-08-22T22:16:13.504Z,3.30
2022-08-22T22:18:41.096Z,3.70
2022-08-22T22:21:08.575Z,3.07
2022-08-22T22:23:35.459Z,3.40
2022-08-22T22:26:04.897Z,3.50
2022-08-22T22:28:36.593Z,3.70
2022-08-22T22:31:03.701Z,3.90
2022-08-22T22:33:33.831Z,3.60
2022-08-22T22:36:16.080Z,3.70
2022-08-22T22:38:43.089Z,3.23
2022-08-22T22:41:11.216Z,3.37
2022-08-22T22:43:37.852Z,3.40
2022-08-22T22:46:04.862Z,3.40
2022-08-22T22:48:33.842Z,3.57
2022-08-22T22:51:07.083Z,3.90
2022-08-22T22:53:38.811Z,3.20
2022-08-22T22:56:21.493Z,3.40
2022-08-22T22:58:49.424Z,3.53
2022-08-22T23:01:20.160Z,3.60
2022-08-22T23:03:47.908Z,3.67
2022-08-22T23:06:18.195Z,3.73
2022-08-22T23:08:45.797Z,3.37
2022-08-22T23:11:18.599Z,3.57
2022-08-22T23:13:46.217Z,3.87
2022-08-22T23:16:16.036Z,3.70
2022-08-22T23:18:43.099Z,3.90
2022-08-22T23:21:20.971Z,3.37
2022-08-22T23:23:49.378Z,3.23
2022-08-22T23:26:16.745Z,3.70
2022-08-22T23:28:43.589Z,3.60
2022-08-22T23:31:11.413Z,3.40
2022-08-22T23:33:38.336Z,2.93
2022-08-22T23:36:20.126Z,3.53
2022-08-22T23:38:47.987Z,3.47
2022-08-22T23:41:17.745Z,3.70
2022-08-22T23:43:47.898Z,3.63
2022-08-22T23:46:16.593Z,3.10
2022-08-22T23:48:43.906Z,3.10
2022-08-22T23:51:12.566Z,3.77
2022-08-22T23:53:40.618Z,3.60
2022-08-22T23:56:24.175Z,3.90
2022-08-22T23:58:51.230Z,3.57
